Time;durP1;ratioP1;P1;durP2;ratioP2;P2;SDS_P1;SDS_P2;PMS_P1;PMS_P2;Temp;Humidity;BMP_temperature;BMP_pressure;BME280_temperature;BME280_humidity;BME280_pressure;Samples;Min_cycle;Max_cycle;Signal;HPM_P1;HPM_P2
2022/05/29 00:01:30;;;;;;;;;;;;;;;20.68;45.74;102024.19;7287002;19;153370;-55
2022/05/29 00:03:56;;;;;;;;;;;;;;;20.72;45.96;102020.53;7286486;19;151911;-55
2022/05/29 00:06:24;;;;;;;;;;;;;;;20.75;45.80;102014.38;7289872;19;152822;-54
2022/05/29 00:09:00;;;;;;;;;;;;;;;20.79;46.27;102021.09;7286873;19;153845;-55
2022/05/29 00:11:34;;;;;;;;;;;;;;;20.83;45.78;102019.41;7288462;19;151937;-55
2022/05/29 00:14:01;;;;;;;;;;;;;;;20.86;46.19;102010.41;7288607;19;153479;-56
2022/05/29 00:16:28;;;;;;;;;;;;;;;20.91;46.09;102008.69;7286859;19;153589;-56
2022/05/29 00:19:03;;;;;;;;;;;;;;;20.93;46.34;102015.75;7290479;19;151846;-55
2022/05/29 00:21:34;;;;;;;;;;;;;;;20.95;46.41;101999.41;7286171;19;153985;-56
2022/05/29 00:24:01;;;;;;;;;;;;;;;20.99;46.28;102002.50;7286966;19;152116;-56
2022/05/29 00:26:28;;;;;;;;;;;;;;;21.00;45.89;102007.84;7285902;19;153386;-55
2022/05/29 00:29:07;;;;;;;;;;;;;;;21.03;46.02;102009.25;7285375;19;153308;-56
2022/05/29 00:31:35;;;;;;;;;;;;;;;21.05;46.03;102013.44;7289335;19;151753;-55
2022/05/29 00:34:01;;;;;;;;;;;;;;;21.07;45.90;102001.94;7287863;19;153577;-55
2022/05/29 00:36:31;;;;;;;;;;;;;;;21.09;46.07;102000.50;7286661;19;153638;-55
2022/05/29 00:39:03;;;;;;;;;;;;;;;21.11;45.95;102000.22;7293408;19;151899;-55
2022/05/29 00:41:31;;;;;;;;;;;;;;;21.12;45.98;102001.91;7287216;19;153884;-56
2022/05/29 00:44:16;;;;;;;;;;;;;;;21.13;45.39;101996.00;7287796;19;152713;-56
2022/05/29 00:46:47;;;;;;;;;;;;;;;21.13;45.81;101996.00;7285762;19;152579;-55
2022/05/29 00:49:15;;;;;;;;;;;;;;;21.15;45.27;101996.59;7286677;19;155032;-56
2022/05/29 00:51:45;;;;;;;;;;;;;;;21.15;45.54;101999.38;7285952;19;153654;-55
2022/05/29 00:54:13;;;;;;;;;;;;;;;21.19;45.64;101994.03;7288598;19;153166;-55
2022/05/29 00:56:40;;;;;;;;;;;;;;;21.22;45.56;101993.44;7286957;19;153251;-55
2022/05/29 00:59:10;;;;;;;;;;;;;;;21.26;45.84;101997.34;7284666;19;153411;-56
2022/05/29 01:01:37;;;;;;;;;;;;;;;21.32;45.84;102001.00;7290085;19;153308;-55
2022/05/29 01:04:04;;;;;;;;;;;;;;;21.36;45.69;101997.31;7285835;19;152170;-55
2022/05/29 01:06:31;;;;;;;;;;;;;;;21.43;46.03;101992.25;7287469;19;152635;-55
2022/05/29 01:09:07;;;;;;;;;;;;;;;21.49;45.79;101984.59;7285586;19;153651;-56
2022/05/29 01:11:46;;;;;;;;;;;;;;;21.56;45.87;101994.41;7286323;19;152168;-55
2022/05/29 01:14:15;;;;;;;;;;;;;;;21.64;45.64;101992.94;7285627;19;153179;-54
2022/05/29 01:16:51;;;;;;;;;;;;;;;21.70;45.96;101991.81;7285430;19;153232;-55
2022/05/29 01:19:36;;;;;;;;;;;;;;;21.78;45.93;101984.72;7285214;19;152453;-55
2022/05/29 01:22:03;;;;;;;;;;;;;;;21.84;45.84;101990.03;7286772;19;152590;-54
2022/05/29 01:24:29;;;;;;;;;;;;;;;21.90;45.75;101990.81;7291531;19;153923;-55
2022/05/29 01:26:59;;;;;;;;;;;;;;;21.97;45.63;101997.84;7286783;19;153716;-55
2022/05/29 01:29:32;;;;;;;;;;;;;;;22.03;45.54;101988.19;7285292;19;154115;-54
2022/05/29 01:32:03;;;;;;;;;;;;;;;22.09;45.26;101983.38;7287285;19;151844;-56
2022/05/29 01:34:30;;;;;;;;;;;;;;;22.14;45.38;101981.38;7286228;19;153317;-55
2022/05/29 01:37:19;;;;;;;;;;;;;;;22.19;45.05;101991.75;7285423;19;153238;-55
2022/05/29 01:40:01;;;;;;;;;;;;;;;22.24;45.18;101991.69;7285684;19;153633;-56
2022/05/29 01:42:37;;;;;;;;;;;;;;;22.28;44.88;101987.16;7284413;19;152705;-55
2022/05/29 01:45:25;;;;;;;;;;;;;;;22.33;44.90;101997.53;7279982;19;153795;-56
2022/05/29 01:48:10;;;;;;;;;;;;;;;22.36;44.47;101991.31;7294758;19;152386;-56
2022/05/29 01:50:41;;;;;;;;;;;;;;;22.39;44.40;101994.41;7283907;19;155736;-55
2022/05/29 01:53:18;;;;;;;;;;;;;;;22.42;44.69;101992.94;7282916;19;151878;-56
2022/05/29 01:55:47;;;;;;;;;;;;;;;22.44;44.31;101988.69;7284888;19;153470;-55
2022/05/29 01:58:17;;;;;;;;;;;;;;;22.45;44.39;101979.09;7282947;19;153219;-55
2022/05/29 02:00:46;;;;;;;;;;;;;;;22.46;44.35;101989.25;7283477;19;152533;-56
2022/05/29 02:03:19;;;;;;;;;;;;;;;22.47;44.14;101982.47;7285668;19;152855;-55
2022/05/29 02:05:49;;;;;;;;;;;;;;;22.49;44.57;101985.81;7283881;19;154848;-55
2022/05/29 02:08:18;;;;;;;;;;;;;;;22.49;44.09;101980.19;7286913;19;152605;-55
2022/05/29 02:10:52;;;;;;;;;;;;;;;22.49;44.02;101979.34;7291126;19;154654;-56
2022/05/29 02:13:25;;;;;;;;;;;;;;;22.51;44.21;101979.91;7286699;19;151724;-55
2022/05/29 02:15:55;;;;;;;;;;;;;;;22.50;44.19;101973.44;7284983;19;155015;-55
2022/05/29 02:18:44;;;;;;;;;;;;;;;22.52;44.52;101964.69;7284217;19;154045;-55
2022/05/29 02:21:17;;;;;;;;;;;;;;;22.52;44.22;101964.69;7283098;19;153341;-55
2022/05/29 02:23:52;;;;;;;;;;;;;;;22.50;44.42;101970.59;7285380;19;153053;-55
2022/05/29 02:26:23;;;;;;;;;;;;;;;22.49;44.15;101957.66;7284893;19;154120;-56
2022/05/29 02:29:03;;;;;;;;;;;;;;;22.49;44.57;101959.63;7284980;19;151829;-55
2022/05/29 02:31:37;;;;;;;;;;;;;;;22.49;44.65;101952.03;7284489;19;153000;-56
2022/05/29 02:34:13;;;;;;;;;;;;;;;22.49;44.30;101954.00;7291724;19;153978;-55
2022/05/29 02:36:48;;;;;;;;;;;;;;;22.48;44.46;101960.78;7284323;19;152471;-56
2022/05/29 02:39:19;;;;;;;;;;;;;;;22.47;44.20;101957.13;7281823;19;154147;-55
2022/05/29 02:41:46;;;;;;;;;;;;;;;22.47;44.14;101954.31;7284490;19;151727;-56
2022/05/29 02:44:25;;;;;;;;;;;;;;;22.45;44.25;101944.47;7285814;19;152836;-55
2022/05/29 02:47:02;;;;;;;;;;;;;;;22.44;43.96;101946.44;7282763;19;153764;-55
2022/05/29 02:49:38;;;;;;;;;;;;;;;22.42;44.25;101943.09;7285310;19;152140;-56
2022/05/29 02:52:10;;;;;;;;;;;;;;;22.41;44.49;101938.59;7282239;19;153248;-55
2022/05/29 02:54:36;;;;;;;;;;;;;;;22.41;44.51;101932.97;7290152;19;153353;-56
2022/05/29 02:57:03;;;;;;;;;;;;;;;22.42;44.11;101940.28;7282149;19;153129;-55
2022/05/29 02:59:32;;;;;;;;;;;;;;;22.44;44.30;101937.19;7281624;19;153839;-56
2022/05/29 03:02:13;;;;;;;;;;;;;;;22.46;44.33;101941.38;7280404;19;153187;-55
2022/05/29 03:04:49;;;;;;;;;;;;;;;22.49;43.78;101935.13;7282875;19;153640;-57
2022/05/29 03:07:19;;;;;;;;;;;;;;;22.56;44.46;101935.63;7281183;19;153228;-55
2022/05/29 03:09:53;;;;;;;;;;;;;;;22.59;44.53;101935.03;7283774;19;151867;-54
2022/05/29 03:12:39;;;;;;;;;;;;;;;22.63;44.66;101935.25;7281919;19;153320;-54
2022/05/29 03:15:17;;;;;;;;;;;;;;;22.67;44.81;101929.88;7289328;19;154388;-55
2022/05/29 03:17:47;;;;;;;;;;;;;;;22.71;44.52;101931.00;7297765;19;152258;-55
2022/05/29 03:20:23;;;;;;;;;;;;;;;22.74;44.36;101927.56;7287425;19;153229;-56
2022/05/29 03:22:58;;;;;;;;;;;;;;;22.76;44.59;101916.84;7290654;19;151861;-55
2022/05/29 03:25:30;;;;;;;;;;;;;;;22.77;44.28;101913.72;7290945;19;153408;-56
2022/05/29 03:27:58;;;;;;;;;;;;;;;22.79;44.61;101919.06;7288145;19;154040;-55
2022/05/29 03:30:37;;;;;;;;;;;;;;;22.81;44.50;101911.13;7290003;19;152218;-55
2022/05/29 03:33:25;;;;;;;;;;;;;;;22.83;44.63;101911.69;7288034;19;152198;-55
2022/05/29 03:35:51;;;;;;;;;;;;;;;22.84;44.49;101914.22;7285842;19;154204;-55
2022/05/29 03:38:18;;;;;;;;;;;;;;;22.84;44.45;101907.72;7286708;19;152336;-55
2022/05/29 03:40:48;;;;;;;;;;;;;;;22.86;44.72;101905.44;7294308;19;154505;-55
2022/05/29 03:43:14;;;;;;;;;;;;;;;22.85;44.50;101901.78;7290570;19;152335;-55
2022/05/29 03:45:41;;;;;;;;;;;;;;;22.86;44.69;101905.44;7288367;19;154525;-56
2022/05/29 03:48:08;;;;;;;;;;;;;;;22.86;44.73;101899.78;7289171;19;153250;-54
2022/05/29 03:50:35;;;;;;;;;;;;;;;;;;7287822;19;151596;-56
2022/05/29 03:53:03;;;;;;;;;;;;;;;22.85;44.50;101903.78;7289453;19;180611;-56
2022/05/29 03:55:29;;;;;;;;;;;;;;;22.88;44.50;101908.81;7287969;19;153497;-56
2022/05/29 03:57:56;;;;;;;;;;;;;;;22.85;44.59;101893.31;7290327;19;151767;-55
2022/05/29 04:00:24;;;;;;;;;;;;;;;22.86;44.43;101891.34;7286661;19;152594;-55
2022/05/29 04:02:51;;;;;;;;;;;;;;;22.86;44.78;101894.16;7293061;19;154251;-55
2022/05/29 04:05:19;;;;;;;;;;;;;;;22.84;44.22;101882.38;7290168;19;152539;-55
2022/05/29 04:13:17;;;;;;;;;;;;;;;22.82;44.43;101893.09;7288282;19;152643;-55
2022/05/29 04:15:47;;;;;;;;;;;;;;;22.82;44.23;101887.44;7287051;19;153216;-55
2022/05/29 04:18:18;;;;;;;;;;;;;;;22.81;44.74;101888.59;7286643;19;151583;-56
2022/05/29 04:20:45;;;;;;;;;;;;;;;22.79;44.55;101897.38;7287955;19;153218;-55
2022/05/29 04:23:12;;;;;;;;;;;;;;;22.79;44.88;101890.88;7286274;19;153199;-56
2022/05/29 04:25:41;;;;;;;;;;;;;;;22.78;44.50;101894.84;7293726;19;152081;-55
2022/05/29 04:28:08;;;;;;;;;;;;;;;22.78;44.98;101889.19;7286896;19;153408;-55
2022/05/29 04:30:34;;;;;;;;;;;;;;;22.76;44.79;101888.69;7288962;19;151870;-56
2022/05/29 04:33:01;;;;;;;;;;;;;;;22.75;44.71;101892.63;7288473;19;153298;-55
2022/05/29 04:35:29;;;;;;;;;;;;;;;22.74;44.60;101890.94;7284291;19;153901;-55
2022/05/29 04:37:55;;;;;;;;;;;;;;;22.73;45.15;101886.44;7289192;19;152166;-56
2022/05/29 04:40:22;;;;;;;;;;;;;;;22.72;44.67;101888.41;7285696;19;152497;-55
2022/05/29 04:42:49;;;;;;;;;;;;;;;22.71;45.16;101881.13;7284586;19;154227;-55
2022/05/29 04:45:16;;;;;;;;;;;;;;;22.69;45.05;101882.53;7285881;19;151781;-56
2022/05/29 04:47:43;;;;;;;;;;;;;;;22.67;45.04;101877.16;7293994;19;152681;-55
2022/05/29 04:50:10;;;;;;;;;;;;;;;22.65;45.15;101881.44;7287656;19;152531;-56
2022/05/29 04:52:36;;;;;;;;;;;;;;;22.63;44.76;101871.31;7287890;19;152803;-55
2022/05/29 04:55:03;;;;;;;;;;;;;;;22.62;45.08;101877.25;7285758;19;154047;-55
2022/05/29 04:57:30;;;;;;;;;;;;;;;22.58;44.92;101877.00;7287666;19;151889;-55
2022/05/29 04:59:57;;;;;;;;;;;;;;;22.57;45.20;101869.72;7286161;19;152629;-55
2022/05/29 05:02:24;;;;;;;;;;;;;;;22.57;45.10;101869.72;7281928;19;154247;-55
2022/05/29 05:04:52;;;;;;;;;;;;;;;22.53;45.72;101868.59;7288311;19;151837;-56
2022/05/29 05:07:19;;;;;;;;;;;;;;;22.51;45.64;101867.25;7293300;19;153333;-55
2022/05/29 05:09:46;;;;;;;;;;;;;;;22.48;45.61;101868.69;7288060;19;152384;-56
2022/05/29 05:12:12;;;;;;;;;;;;;;;22.47;45.92;101867.00;7287897;19;151907;-56
2022/05/29 05:14:39;;;;;;;;;;;;;;;22.46;46.02;101870.97;7283677;19;153640;-55
2022/05/29 05:17:06;;;;;;;;;;;;;;;22.46;46.09;101862.50;7287711;19;151726;-56
2022/05/29 05:19:33;;;;;;;;;;;;;;;22.43;45.75;101854.66;7283491;19;153554;-55
2022/05/29 05:22:01;;;;;;;;;;;;;;;22.41;46.33;101862.56;7287042;19;153236;-55
2022/05/29 05:24:27;;;;;;;;;;;;;;;22.39;46.14;101861.19;7285202;19;152138;-55
2022/05/29 05:26:56;;;;;;;;;;;;;;;22.38;45.98;101857.53;7287040;19;153376;-56
2022/05/29 05:29:22;;;;;;;;;;;;;;;22.37;46.49;101852.19;7292613;19;154085;-55
2022/05/29 05:31:57;;;;;;;;;;;;;;;22.35;46.19;101849.66;7286657;19;152551;-56
2022/05/29 05:34:24;;;;;;;;;;;;;;;22.32;46.50;101841.81;7284039;19;155713;-55
2022/05/29 05:36:51;;;;;;;;;;;;;;;22.30;46.22;101841.31;7285795;19;151850;-56
2022/05/29 05:39:17;;;;;;;;;;;;;;;22.30;46.49;101846.94;7286387;19;152692;-54
2022/05/29 05:41:49;;;;;;;;;;;;;;;22.28;46.29;101839.91;7285187;19;153996;-54
2022/05/29 05:44:27;;;;;;;;;;;;;;;22.25;46.26;101848.97;7285603;19;152128;-55
2022/05/29 05:46:55;;;;;;;;;;;;;;;22.24;46.19;101848.13;7285492;19;153392;-55
2022/05/29 05:49:27;;;;;;;;;;;;;;;22.21;46.60;101848.72;7285895;19;154063;-55
2022/05/29 05:51:58;;;;;;;;;;;;;;;22.20;46.16;101849.00;7294942;19;152033;-56
2022/05/29 05:54:28;;;;;;;;;;;;;;;22.17;46.52;101854.09;7284044;19;153827;-55
2022/05/29 05:56:55;;;;;;;;;;;;;;;22.15;46.25;101835.84;7285482;19;151801;-55
2022/05/29 05:59:21;;;;;;;;;;;;;;;22.13;46.72;101841.75;7284733;19;153128;-55
2022/05/29 06:02:01;;;;;;;;;;;;;;;22.12;46.66;101845.69;7283019;19;155584;-56
2022/05/29 06:04:28;;;;;;;;;;;;;;;22.10;46.80;101845.16;7284437;19;151874;-56
2022/05/29 06:06:55;;;;;;;;;;;;;;;22.13;46.87;101844.56;7285909;19;152697;-55
2022/05/29 06:09:23;;;;;;;;;;;;;;;22.10;46.63;101847.16;7283722;19;153242;-56
2022/05/29 06:11:57;;;;;;;;;;;;;;;22.07;46.76;101857.03;7286394;19;151921;-56
2022/05/29 06:14:23;;;;;;;;;;;;;;;22.05;46.75;101850.84;7292052;19;152943;-55
2022/05/29 06:16:50;;;;;;;;;;;;;;;22.02;47.02;101851.44;7284160;19;152557;-54
2022/05/29 06:19:18;;;;;;;;;;;;;;;22.01;46.80;101857.38;7284845;19;152649;-55
2022/05/29 06:22:00;;;;;;;;;;;;;;;22.00;47.32;101856.53;7285294;19;153303;-55
2022/05/29 06:24:28;;;;;;;;;;;;;;;21.98;47.24;101853.19;7282475;19;151701;-56
2022/05/29 06:26:56;;;;;;;;;;;;;;;21.96;46.93;101841.38;7285600;19;153815;-55
2022/05/29 06:29:22;;;;;;;;;;;;;;;21.95;47.42;101844.47;7283181;19;153300;-55
2022/05/29 06:32:08;;;;;;;;;;;;;;;21.92;47.38;101840.25;7284962;19;151890;-56
2022/05/29 06:34:36;;;;;;;;;;;;;;;21.91;47.35;101843.34;7284471;19;152670;-56
2022/05/29 06:37:03;;;;;;;;;;;;;;;21.91;47.31;101840.53;7291852;19;154191;-55
2022/05/29 06:39:30;;;;;;;;;;;;;;;21.92;47.91;101840.25;7284844;19;152563;-55
2022/05/29 06:42:01;;;;;;;;;;;;;;;21.88;47.47;101839.19;7284809;19;153324;-55
2022/05/29 06:44:28;;;;;;;;;;;;;;;21.87;47.10;101851.56;7285095;19;152107;-56
2022/05/29 06:46:55;;;;;;;;;;;;;;;21.89;47.44;101834.38;7281006;19;153142;-55
2022/05/29 06:49:22;;;;;;;;;;;;;;;21.85;47.29;101833.31;7287627;19;153930;-55
2022/05/29 06:51:56;;;;;;;;;;;;;;;21.83;47.07;101833.59;7291627;19;151982;-57
2022/05/29 06:54:23;;;;;;;;;;;;;;;21.82;47.28;101825.44;7290443;19;153655;-55
2022/05/29 06:56:49;;;;;;;;;;;;;;;21.80;47.67;101820.13;7290244;19;153289;-55
2022/05/29 06:59:16;;;;;;;;;;;;;;;21.79;47.47;101818.44;7297804;19;151821;-55
2022/05/29 07:07:16;;;;;;;;;;;;;;;21.76;47.78;101818.19;7289794;19;153409;-56
2022/05/29 07:09:43;;;;;;;;;;;;;;;21.73;47.80;101826.09;7288771;19;154407;-56
2022/05/29 07:12:12;;;;;;;;;;;;;;;21.73;47.95;101825.25;7291724;19;151803;-55
2022/05/29 07:14:40;;;;;;;;;;;;;;;21.71;48.02;101824.72;7291480;19;156176;-55
2022/05/29 07:17:07;;;;;;;;;;;;;;;21.74;47.74;101824.13;7289592;19;153788;-56
2022/05/29 07:19:34;;;;;;;;;;;;;;;21.73;47.60;101828.91;7297857;19;152027;-55
2022/05/29 07:22:01;;;;;;;;;;;;;;;21.71;47.51;101819.91;7288697;19;153667;-56
2022/05/29 07:24:29;;;;;;;;;;;;;;;21.69;48.04;101819.38;7289771;19;151997;-55
2022/05/29 07:26:56;;;;;;;;;;;;;;;21.69;48.13;101819.38;7290711;19;153186;-56
2022/05/29 07:29:23;;;;;;;;;;;;;;;21.74;47.58;101822.16;7286935;19;152377;-56
2022/05/29 07:31:55;;;;;;;;;;;;;;;21.71;48.02;101814.28;7290615;19;151771;-56
2022/05/29 07:34:23;;;;;;;;;;;;;;;21.68;47.96;101812.06;7288966;19;153393;-55
2022/05/29 07:36:51;;;;;;;;;;;;;;;21.67;47.79;101809.53;7288518;19;154252;-56
2022/05/29 07:39:19;;;;;;;;;;;;;;;21.66;47.81;101819.13;7290489;19;152183;-55
2022/05/29 07:44:40;;;;;;;;;;;;;;;21.64;48.07;101819.41;7288557;19;152604;-55
2022/05/29 07:47:06;;;;;;;;;;;;;;;21.63;48.27;101819.69;7287513;19;152519;-55
2022/05/29 07:49:33;;;;;;;;;;;;;;;21.62;48.02;101816.03;7288782;19;154052;-55
2022/05/29 07:51:59;;;;;;;;;;;;;;;21.61;48.37;101817.19;7290123;19;155508;-56
2022/05/29 07:54:26;;;;;;;;;;;;;;;21.60;48.38;101809.88;7288051;19;152581;-54
2022/05/29 07:56:58;;;;;;;;;;;;;;;21.60;48.10;101809.06;7288255;19;153807;-55
2022/05/29 07:59:24;;;;;;;;;;;;;;;21.60;48.21;101815.50;7288820;19;151669;-54
2022/05/29 08:01:59;;;;;;;;;;;;;;;21.58;48.23;101809.34;7285015;19;152652;-56
2022/05/29 08:04:27;;;;;;;;;;;;;;;21.59;48.50;101818.63;7293939;19;154191;-56
2022/05/29 08:06:54;;;;;;;;;;;;;;;21.59;48.71;101813.00;7289179;19;153661;-55
2022/05/29 08:09:21;;;;;;;;;;;;;;;21.56;48.39;101817.25;7285788;19;154044;-56
2022/05/29 08:11:54;;;;;;;;;;;;;;;21.61;48.24;101819.16;7289002;19;152070;-55
2022/05/29 08:14:21;;;;;;;;;;;;;;;21.59;48.37;101813.84;7289559;19;151962;-55
2022/05/29 08:16:48;;;;;;;;;;;;;;;21.58;48.43;101814.13;7287294;19;154313;-56
2022/05/29 08:19:14;;;;;;;;;;;;;;;21.55;48.71;101809.94;7287989;19;154448;-55
2022/05/29 08:21:53;;;;;;;;;;;;;;;21.54;48.75;101802.63;7286938;19;152451;-55
2022/05/29 08:32:58;;;;;;;;;;;;;;;21.52;48.83;101798.44;7288172;19;152544;-56
2022/05/29 08:35:24;;;;;;;;;;;;;;;21.57;48.39;101789.97;7286075;19;153432;-55
2022/05/29 08:37:51;;;;;;;;;;;;;;;21.63;48.68;101791.56;7285866;19;154504;-55
2022/05/29 08:40:18;;;;;;;;;;;;;;;21.66;48.66;101796.63;7287956;19;152231;-55
2022/05/29 08:42:44;;;;;;;;;;;;;;;21.67;48.49;101782.25;7288155;19;152933;-54
2022/05/29 08:45:14;;;;;;;;;;;;;;;21.72;48.73;101782.19;7286060;19;153747;-55
2022/05/29 08:47:45;;;;;;;;;;;;;;;21.76;48.88;101799.31;7288757;19;151884;-55
2022/05/29 08:50:32;;;;;;;;;;;;;;;21.82;49.11;101780.44;7293214;19;153776;-55
2022/05/29 08:53:08;;;;;;;;;;;;;;;21.86;48.92;101773.91;7287986;19;152062;-56
2022/05/29 08:55:51;;;;;;;;;;;;;;;21.91;48.63;101773.84;7286597;19;153578;-56
2022/05/29 08:58:20;;;;;;;;;;;;;;;21.96;48.87;101761.75;7286913;19;154643;-55
2022/05/29 09:00:47;;;;;;;;;;;;;;;22.00;48.87;101752.41;7285135;19;151660;-56
2022/05/29 09:03:16;;;;;;;;;;;;;;;22.04;48.92;101758.25;7286316;19;153821;-55
2022/05/29 09:05:52;;;;;;;;;;;;;;;22.07;48.52;101754.88;7284354;19;154100;-55
2022/05/29 09:08:27;;;;;;;;;;;;;;;22.10;48.49;101748.63;7288583;19;152268;-56
2022/05/29 09:10:56;;;;;;;;;;;;;;;22.13;48.35;101750.84;7285544;19;153401;-55
2022/05/29 09:13:34;;;;;;;;;;;;;;;22.17;48.90;101752.75;7291980;19;151981;-55
2022/05/29 09:16:06;;;;;;;;;;;;;;;22.21;48.69;101750.19;7285306;19;152955;-55
2022/05/29 09:18:38;;;;;;;;;;;;;;;22.24;48.22;101746.78;7286706;19;153452;-55
2022/05/29 09:21:27;;;;;;;;;;;;;;;22.28;48.70;101747.00;7283529;19;151975;-56
2022/05/29 09:23:54;;;;;;;;;;;;;;;22.30;48.45;101736.28;7287093;19;153577;-54
2022/05/29 09:26:21;;;;;;;;;;;;;;;22.31;48.06;101738.78;7284975;19;154090;-56
2022/05/29 09:28:48;;;;;;;;;;;;;;;22.34;47.97;101734.53;7287392;19;151750;-55
2022/05/29 09:31:17;;;;;;;;;;;;;;;22.34;47.92;101735.38;7286418;19;152744;-55
2022/05/29 09:33:44;;;;;;;;;;;;;;;22.35;48.04;101734.22;7292787;19;153349;-55
2022/05/29 09:36:31;;;;;;;;;;;;;;;22.35;47.84;101731.41;7285942;19;153060;-56
2022/05/29 09:39:01;;;;;;;;;;;;;;;22.36;48.35;101721.81;7283692;19;153534;-56
2022/05/29 09:41:35;;;;;;;;;;;;;;;22.39;48.07;101724.06;7283369;19;152363;-55
2022/05/29 09:44:04;;;;;;;;;;;;;;;22.40;48.09;101722.06;7287016;19;152873;-56
2022/05/29 09:46:32;;;;;;;;;;;;;;;22.42;47.92;101716.97;7283829;19;154242;-55
2022/05/29 09:52:04;;;;;;;;;;;;;;;22.37;46.56;101712.25;7285837;19;152914;-56
2022/05/29 09:54:33;;;;;;;;;;;;;;;22.32;46.57;101720.75;7284065;19;153232;-56
2022/05/29 09:57:07;;;;;;;;;;;;;;;22.36;46.28;101718.16;7292654;19;152129;-56
2022/05/29 09:59:36;;;;;;;;;;;;;;;22.34;46.05;101718.50;7284977;19;153742;-56
2022/05/29 10:02:04;;;;;;;;;;;;;;;22.34;46.15;101712.03;7283590;19;152053;-56
2022/05/29 10:04:37;;;;;;;;;;;;;;;22.34;46.49;101715.69;7285900;19;153466;-55
2022/05/29 10:07:28;;;;;;;;;;;;;;;22.34;46.53;101714.84;7283313;19;153593;-55
2022/05/29 10:10:15;;;;;;;;;;;;;;;22.33;46.15;101708.38;7286740;19;153011;-55
2022/05/29 10:12:44;;;;;;;;;;;;;;;22.33;45.96;101705.53;7283464;19;152207;-58
2022/05/29 10:15:25;;;;;;;;;;;;;;;22.33;46.02;101702.72;7284624;19;154008;-57
2022/05/29 10:18:05;;;;;;;;;;;;;;;22.41;45.81;101704.88;7284969;19;152541;-57
2022/05/29 10:20:39;;;;;;;;;;;;;;;22.44;44.32;101697.81;7291596;19;153360;-58
2022/05/29 10:23:11;;;;;;;;;;;;;;;22.31;39.86;101702.19;7283890;19;151770;-58
2022/05/29 10:25:38;;;;;;;;;;;;;;;22.31;39.05;101713.44;7282742;19;152726;-57
2022/05/29 10:28:14;;;;;;;;;;;;;;;22.28;38.64;101708.44;7283979;19;152500;-58
2022/05/29 10:30:41;;;;;;;;;;;;;;;22.14;37.05;101699.03;7282952;19;152376;-57
2022/05/29 10:33:09;;;;;;;;;;;;;;;22.05;36.74;101698.88;7284500;19;152497;-57
2022/05/29 10:35:41;;;;;;;;;;;;;;;22.01;36.19;101694.16;7283040;19;153950;-59
2022/05/29 10:38:22;;;;;;;;;;;;;;;22.00;35.55;101696.13;7285566;19;152020;-57
2022/05/29 10:40:50;;;;;;;;;;;;;;;22.07;36.17;101690.13;7284226;19;153474;-58
2022/05/29 10:43:43;;;;;;;;;;;;;;;21.93;36.02;101692.00;7291651;19;154311;-58
2022/05/29 10:46:13;;;;;;;;;;;;;;;21.81;36.54;101680.28;7282750;19;153635;-57
2022/05/29 10:48:55;;;;;;;;;;;;;;;21.80;37.63;101685.09;7283658;19;156236;-57
2022/05/29 10:51:41;;;;;;;;;;;;;;;21.89;38.95;101683.28;7279736;19;152047;-56
2022/05/29 10:54:15;;;;;;;;;;;;;;;21.91;40.08;101680.16;7283567;19;152357;-58
2022/05/29 10:56:43;;;;;;;;;;;;;;;21.94;40.35;101674.81;7282213;19;152742;-56
2022/05/29 10:59:31;;;;;;;;;;;;;;;21.99;40.77;101676.72;7285028;19;153198;-57
2022/05/29 11:05:11;;;;;;;;;;;;;;;22.04;41.03;101673.84;7282801;19;153282;-58
2022/05/29 11:08:03;;;;;;;;;;;;;;;22.10;40.93;101672.63;7291395;19;151605;-56
2022/05/29 11:10:31;;;;;;;;;;;;;;;22.06;41.42;101671.56;7281825;19;153393;-57
2022/05/29 11:13:20;;;;;;;;;;;;;;;22.06;41.47;101675.22;7283379;19;151653;-58
2022/05/29 11:16:00;;;;;;;;;;;;;;;22.02;41.92;101668.53;7283276;19;153655;-57
2022/05/29 11:18:27;;;;;;;;;;;;;;;22.01;42.07;101663.19;7282471;19;155266;-56
2022/05/29 11:21:04;;;;;;;;;;;;;;;21.99;42.12;101659.81;7283777;19;152214;-57
2022/05/29 11:23:40;;;;;;;;;;;;;;;21.98;41.90;101661.84;7283604;19;153148;-56
2022/05/29 11:26:32;;;;;;;;;;;;;;;22.03;41.86;101661.75;7283399;19;154084;-56
2022/05/29 11:29:10;;;;;;;;;;;;;;;22.06;41.78;101652.72;7290717;19;151653;-55
2022/05/29 11:32:11;;;;;;;;;;;;;;;22.06;41.97;101644.28;7282127;19;153378;-57
2022/05/29 11:34:40;;;;;;;;;;;;;;;22.08;42.03;101639.16;7283022;19;152523;-57
2022/05/29 11:37:16;;;;;;;;;;;;;;;22.07;39.25;101633.84;7289630;19;153562;-59
2022/05/29 11:39:48;;;;;;;;;;;;;;;22.05;40.54;101642.59;7287125;19;154234;-58
2022/05/29 11:42:20;;;;;;;;;;;;;;;22.02;41.07;101646.00;7288005;19;151855;-56
2022/05/29 11:44:54;;;;;;;;;;;;;;;22.09;41.28;101625.94;7289040;19;153833;-62
2022/05/29 11:53:28;;;;;;;;;;;;;;;21.98;42.15;101619.63;7297233;19;152982;-58
2022/05/29 11:55:56;;;;;;;;;;;;;;;22.00;42.33;101613.66;7287213;19;152247;-58
2022/05/29 11:58:34;;;;;;;;;;;;;;;22.00;41.91;101613.66;7280912;19;152855;-57
2022/05/29 12:01:01;;;;;;;;;;;;;;;22.00;42.19;101614.50;7285681;19;154055;-56
2022/05/29 12:03:34;;;;;;;;;;;;;;;22.02;41.89;101612.25;7288135;19;151963;-56
2022/05/29 12:06:11;;;;;;;;;;;;;;;22.02;41.89;101598.19;7287861;19;152638;-56
2022/05/29 12:08:48;;;;;;;;;;;;;;;22.02;42.15;101602.97;7288412;19;154004;-57
2022/05/29 12:11:33;;;;;;;;;;;;;;;21.99;42.26;101606.38;7288768;19;153207;-56
2022/05/29 12:14:00;;;;;;;;;;;;;;;21.95;42.36;101602.47;7287780;19;152530;-58
2022/05/29 12:16:31;;;;;;;;;;;;;;;21.94;42.25;101598.81;7295386;19;153628;-57
2022/05/29 12:19:00;;;;;;;;;;;;;;;21.92;42.35;101601.09;7286775;19;153502;-55
2022/05/29 12:21:31;;;;;;;;;;;;;;;21.92;42.05;101605.88;7284534;19;154668;-56
2022/05/29 12:24:00;;;;;;;;;;;;;;;21.89;42.25;101598.06;7287974;19;151753;-56
2022/05/29 12:26:32;;;;;;;;;;;;;;;21.88;42.63;101597.22;7288910;19;153523;-57
2022/05/29 12:29:02;;;;;;;;;;;;;;;21.86;42.62;101596.66;7286994;19;153985;-57
2022/05/29 12:31:41;;;;;;;;;;;;;;;21.86;42.58;101598.63;7288713;19;152026;-58
2022/05/29 12:34:29;;;;;;;;;;;;;;;21.85;42.33;101596.97;7287123;19;152819;-57
2022/05/29 12:36:55;;;;;;;;;;;;;;;21.83;42.51;101588.00;7287628;19;153340;-57
2022/05/29 12:39:34;;;;;;;;;;;;;;;21.80;42.10;101589.44;7295762;19;152026;-56
2022/05/29 12:42:03;;;;;;;;;;;;;;;21.80;42.06;101589.44;7286362;19;153965;-57
2022/05/29 12:44:41;;;;;;;;;;;;;;;21.81;42.22;101584.63;7288945;19;151966;-57
2022/05/29 12:47:20;;;;;;;;;;;;;;;21.80;42.16;101585.78;7285740;19;152939;-57
2022/05/29 12:49:57;;;;;;;;;;;;;;;21.77;42.37;101584.41;7286704;19;153300;-57
2022/05/29 12:52:37;;;;;;;;;;;;;;;21.77;42.33;101586.38;7287475;19;152022;-56
2022/05/29 12:55:07;;;;;;;;;;;;;;;21.81;42.15;101577.03;7286813;19;153123;-56
2022/05/29 12:57:44;;;;;;;;;;;;;;;21.81;42.62;101577.03;7285657;19;153132;-56
2022/05/29 13:00:29;;;;;;;;;;;;;;;21.81;42.28;101573.38;7285727;19;151766;-57
2022/05/29 13:03:08;;;;;;;;;;;;;;;21.75;42.48;101569.81;7291326;19;153008;-56
2022/05/29 13:05:35;;;;;;;;;;;;;;;21.72;42.59;101571.25;7287657;19;151718;-58
2022/05/29 13:08:19;;;;;;;;;;;;;;;21.76;42.71;101576.28;7287339;19;157145;-58
2022/05/29 13:10:50;;;;;;;;;;;;;;;21.70;42.75;101572.69;7283260;19;154125;-56
2022/05/29 13:13:35;;;;;;;;;;;;;;;21.70;42.49;101567.91;7287264;19;152117;-56
2022/05/29 13:16:21;;;;;;;;;;;;;;;21.73;42.62;101572.09;7283724;19;152713;-56
2022/05/29 13:21:57;;;;;;;;;;;;;;;21.70;42.32;101562.28;7286706;19;151879;-57
2022/05/29 13:24:36;;;;;;;;;;;;;;;21.66;42.72;101561.22;7286281;19;153092;-57
2022/05/29 13:27:09;;;;;;;;;;;;;;;21.68;42.78;101567.38;7292252;19;153867;-57
2022/05/29 13:29:41;;;;;;;;;;;;;;;21.67;42.81;101562.03;7285240;19;155346;-57